Merry Christmas and Happy New Year!

 

Sretan Božić i Nova godina!

 

METAR

METAR LDZA 280600Z 28008KT 270V350 CAVOK 04/02 Q1007 NOSIG =
METAR LDSP 280600Z 34003KT 9999 FEW035 BKN055 08/06 Q1006 NOSIG=
METAR LDDU 280600Z 11018KT 9999 -RA FEW010 SCT023 BKN036 06/05 Q1007 NOSIG =
METAR LDZD 280600Z VRB02KT 9999 FEW030 SCT047 04/04 Q1007 BECMG 32010KT =
METAR COR LDPL 280600Z VRB02KT CAVOK 03/01 Q1008 BECMG 32010KT=
METAR LDOS 280600Z 21009KT 9999 FEW030 04/01 Q1004=
METAR LDRI 280600Z 01003KT 9999 FEW043 05/03 Q1008=

TAF

TAF LDZA 280525Z 2806/2906 32010KT CAVOK
                 TX12/2813Z TNM01/2904Z
    PROB40 TEMPO 2808/2816 30015G25KT
           BECMG 2818/2820 VRB02KT
           BECMG 2904/2906 23006KT=
TAF LDSP 280525Z 2806/2906 34008KT 9999 BKN045
                 TX13/2812Z TN02/2903Z
    PROB30 TEMPO 2806/2809 34015G25KT 3000 TSRA FEW025CB BKN040
    PROB30 TEMPO 2809/2814 34018G28KT
           BECMG 2818/2820 05006KT=
TAF LDDU 280525Z 2806/2906 11015KT 9999 RA FEW010 BKN030
                 TX12/2814Z TN01/2905Z
    PROB30 TEMPO 2809/2812 02018G30KT 4000 TSRA FEW025CB BKN030
           BECMG 2811/2813 33015KT NSW
           BECMG 2816/2818 02012KT=
TAF LDZD 280525Z 2806/2906 04008KT 9999 SCT050
                 TX13/2812Z TNM01/2905Z
           BECMG 2806/2808 32010KT
    PROB30 TEMPO 2808/2814 32015G25KT
           BECMG 2818/2820 06005KT=
TAF LDPL 280525Z 2806/2906 32012KT CAVOK
                 TX14/2813Z TN03/2904Z
           BECMG 2814/2816 VRB02KT
           BECMG 2819/2821 11006KT
    PROB30 TEMPO 2904/2906 4000 BR BKN010=
TAF LDOS 280525Z 2806/2906 16010KT 9999 BKN035
                 TX08/2813Z TNM01/2905Z
    PROB30 TEMPO 2806/2808 RA
           BECMG 2806/2808 32015KT
    PROB40 TEMPO 2807/2818 32020G30KT
    PROB30 TEMPO 2811/2815 SHRA FEW030TCU BKN035
           BECMG 2818/2820 29007KT
           BECMG 2902/2904 22005KT=
TAF LDRI 280525Z 2806/2906 08005KT 9999 BKN030
                 TX14/2813Z TN03/2904Z
           BECMG 2807/2809 32008KT
           BECMG 2815/2817 VRB02KT=

SIGMET

AIRMET

LDZO AIRMET 6 VALID 280400/280800 LDZA-
LDZO ZAGREB FIR MOD ICE FCST WI N4620 E01651 - N4552 E01853 - N4512
E01924 - N4126 E01818 - N4241 E01548 - N4328 E01433 - N4415 E01340 -
N4620 E01651 ABV 4000FT MOV SE 15KT NC=
LDZO AIRMET 7 VALID 280400/280800 LDZA-
LDZO ZAGREB FIR SFC WIND 320/30KT FCST WI N4253 E01706 - N4220
E01615 - N4330 E01431 - N4432 E01322 - N4253 E01706 MOV SE 30KT NC=
LDZO AIRMET 8 VALID 280600/281000 LDZA-
LDZO ZAGREB FIR MT OBSC FCST WI N4441 E01557 - N4212 E01851 - N4345
E01557 - N4425 E01514 - N4441 E01557 ABV 2000FT MOV SE 15KT NC=
LDZO AIRMET 9 VALID 280600/281000 LDZA-
LDZO ZAGREB FIR MOD TURB FCST NE OF LINE N4547 E01527 - N4506 E01811
SFC/5000FT STNR NC=

Remark

Ukoliko se brzina i smjer vjetra ne mogu odrediti zbog privremenog kvara sustava/indikatora,
informacija o vjetru u METAR izvješću bit će prikazana kao "/////KT".

 

Disclaimer

 

In case of temporary system/sensor failure, wind speed and direction data will be represented as "/////KT" in METAR report.

 

If you cannot log in with your user account, please contact stjepko.jancijev@crocontrol.hr.
Specifically, the website deactivates user accounts that have not been used for more than 365 days, so they must be reactivated.
 

         

      Politika MET podataka      

 

Ukoliko se svojim korisničkim računom ne možete logirati na web stranicu, molim vas da se obratite na stjepko.jancijev@crocontrol.hr.

Naime, web stranica deaktivira korisničke račune koji nisu korišteni više od 365 dana te ih je potrebno ponovno aktivirati.